createdAt,value
2019-02-06T00:00:14.490Z,2.8
2019-02-06T00:01:26.000Z,3.8
2019-02-06T00:02:38.890Z,2.3
2019-02-06T00:03:51.085Z,2.4
2019-02-06T00:05:03.278Z,3
2019-02-06T00:06:15.476Z,2.1
2019-02-06T00:07:27.664Z,2.7
2019-02-06T00:08:39.860Z,2.3
2019-02-06T00:09:52.057Z,2.2
2019-02-06T00:11:04.257Z,2.1
2019-02-06T00:12:16.444Z,2.2
2019-02-06T00:13:28.000Z,1.9
2019-02-06T00:14:40.844Z,2.5
2019-02-06T00:15:53.032Z,2.5
2019-02-06T00:17:05.237Z,2.4
2019-02-06T00:18:17.427Z,2.3
2019-02-06T00:19:29.061Z,2.3
2019-02-06T00:20:41.000Z,2
2019-02-06T00:21:53.000Z,2.6
2019-02-06T00:23:06.210Z,1.9
2019-02-06T00:24:18.394Z,2.3
2019-02-06T00:25:30.594Z,2
2019-02-06T00:26:42.079Z,2
2019-02-06T00:27:54.987Z,2.9
2019-02-06T00:29:07.187Z,3
2019-02-06T00:30:19.380Z,3.3
2019-02-06T00:31:31.576Z,1.9
2019-02-06T00:32:43.764Z,2.2
2019-02-06T00:33:55.963Z,2.7
2019-02-06T00:35:08.156Z,1.9
2019-02-06T00:36:20.351Z,1.8
2019-02-06T00:37:32.550Z,2.1
2019-02-06T00:38:44.744Z,2.3
2019-02-06T00:39:56.936Z,3
2019-02-06T00:41:09.013Z,2.1
2019-02-06T00:42:21.340Z,2.3
2019-02-06T00:43:33.533Z,2
2019-02-06T00:44:45.720Z,1.6
2019-02-06T00:45:57.095Z,2
2019-02-06T00:47:10.119Z,2.1
2019-02-06T00:48:22.307Z,2.1
2019-02-06T00:49:34.499Z,2
2019-02-06T00:50:46.702Z,1.9
2019-02-06T00:51:58.090Z,2.7
2019-02-06T00:53:11.086Z,2.2
2019-02-06T00:54:23.303Z,1.9
2019-02-06T00:55:35.475Z,2.7
2019-02-06T00:56:47.674Z,2.2
2019-02-06T00:57:59.087Z,2.3
2019-02-06T00:59:12.068Z,2.1
2019-02-06T01:00:24.261Z,2.1
2019-02-06T01:01:36.459Z,1.9
2019-02-06T01:02:48.659Z,2.1
2019-02-06T01:04:00.085Z,2.1
2019-02-06T01:05:13.047Z,2.3
2019-02-06T01:06:25.023Z,2.3
2019-02-06T01:07:37.436Z,2.1
2019-02-06T01:08:49.634Z,1.9
2019-02-06T01:10:01.825Z,2.2
2019-02-06T01:11:13.000Z,2.1
2019-02-06T01:12:26.021Z,1.8
2019-02-06T01:13:38.415Z,1.7
2019-02-06T01:14:50.607Z,2
2019-02-06T01:16:02.833Z,1.8
2019-02-06T01:17:14.997Z,2.1
2019-02-06T01:18:27.000Z,2
2019-02-06T01:19:39.409Z,1.8
2019-02-06T01:20:51.000Z,2.4
2019-02-06T01:22:03.788Z,2
2019-02-06T01:23:15.991Z,2.3
2019-02-06T01:24:28.182Z,1.7
2019-02-06T01:25:40.373Z,2.1
2019-02-06T01:26:52.567Z,2.1
2019-02-06T01:28:04.000Z,2.6
2019-02-06T01:29:16.962Z,1.7
2019-02-06T01:30:29.155Z,2.3
2019-02-06T01:31:41.035Z,2.1
2019-02-06T01:32:53.000Z,2.6
2019-02-06T01:34:05.000Z,1.9
2019-02-06T01:35:17.936Z,2.2
2019-02-06T01:36:30.134Z,2
2019-02-06T01:37:42.329Z,2
2019-02-06T01:38:54.519Z,2.2
2019-02-06T01:40:06.000Z,1.7
2019-02-06T01:41:18.914Z,2.2
2019-02-06T01:42:31.111Z,2
2019-02-06T01:43:43.310Z,2
2019-02-06T01:44:55.503Z,2
2019-02-06T01:46:07.000Z,1.9
2019-02-06T01:47:19.891Z,1.7
2019-02-06T01:48:32.091Z,1.9
2019-02-06T01:49:44.002Z,1.8
2019-02-06T01:50:56.486Z,2
2019-02-06T01:52:08.672Z,1.5
2019-02-06T01:53:20.877Z,1.9
2019-02-06T01:54:33.068Z,1.9
2019-02-06T01:55:45.254Z,2.2
2019-02-06T01:56:57.000Z,1.8
2019-02-06T01:58:09.660Z,1.9
2019-02-06T01:59:21.852Z,1.8
2019-02-06T02:00:34.043Z,2.4
2019-02-06T02:01:46.235Z,2.6
2019-02-06T02:02:58.043Z,1.6
2019-02-06T02:04:10.000Z,1.9
2019-02-06T02:05:22.820Z,2
2019-02-06T02:06:35.025Z,2
2019-02-06T02:07:47.212Z,1.9
2019-02-06T02:08:59.000Z,1.8
2019-02-06T02:10:11.607Z,1.8
2019-02-06T02:11:23.804Z,2
2019-02-06T02:12:36.001Z,1.9
2019-02-06T02:13:48.191Z,2
2019-02-06T02:15:00.381Z,1.6
2019-02-06T02:16:12.586Z,1.7
2019-02-06T02:17:24.779Z,1.9
2019-02-06T02:18:36.000Z,1.7
2019-02-06T02:19:49.166Z,2.2
2019-02-06T02:21:01.367Z,2
2019-02-06T02:22:13.562Z,2
2019-02-06T02:23:25.000Z,2.3
2019-02-06T02:24:37.948Z,2
2019-02-06T02:25:50.145Z,1.7
2019-02-06T02:27:02.342Z,2.2
2019-02-06T02:28:14.539Z,1.6
2019-02-06T02:29:26.741Z,1.7
2019-02-06T02:30:38.933Z,1.8
2019-02-06T02:31:51.118Z,1.7
2019-02-06T02:33:03.329Z,1.8
2019-02-06T02:34:15.511Z,2
2019-02-06T02:35:27.711Z,1.7
2019-02-06T02:36:39.904Z,1.7
2019-02-06T02:37:52.101Z,1.7
2019-02-06T02:39:04.293Z,1.8
2019-02-06T02:40:16.487Z,1.5
2019-02-06T02:41:28.694Z,2.1
2019-02-06T02:42:40.885Z,1.8
2019-02-06T02:43:53.082Z,1.7
2019-02-06T02:45:05.000Z,1.8
2019-02-06T02:46:17.593Z,1.8
2019-02-06T02:47:29.000Z,1.7
2019-02-06T02:48:41.859Z,1.9
2019-02-06T02:49:54.054Z,2.5
2019-02-06T02:51:06.257Z,1.6
2019-02-06T02:52:18.000Z,1.8
2019-02-06T02:53:30.638Z,1.6
2019-02-06T02:54:42.839Z,1.6
2019-02-06T02:55:55.032Z,2.1
2019-02-06T02:57:07.232Z,2.2
2019-02-06T02:58:19.427Z,1.9
2019-02-06T02:59:31.000Z,2.2
2019-02-06T03:00:43.820Z,2
2019-02-06T03:01:55.000Z,1.8
2019-02-06T03:03:08.208Z,1.7
2019-02-06T03:04:20.404Z,1.7
2019-02-06T03:05:32.603Z,1.6
2019-02-06T03:06:44.000Z,2.9
2019-02-06T03:07:56.098Z,1.6
2019-02-06T03:09:09.177Z,1.8
2019-02-06T03:10:21.000Z,1.6
2019-02-06T03:11:33.578Z,1.7
2019-02-06T03:13:57.963Z,1.6
2019-02-06T03:15:10.155Z,1.8
2019-02-06T03:16:22.355Z,1.8
2019-02-06T03:17:34.555Z,1.7
2019-02-06T03:18:46.748Z,1.8
2019-02-06T03:19:58.934Z,1.7
2019-02-06T03:21:11.134Z,1.6
2019-02-06T03:22:23.336Z,1.7
2019-02-06T03:23:35.000Z,2.6
2019-02-06T03:24:47.736Z,1.8
2019-02-06T03:25:59.917Z,1.5
2019-02-06T03:27:12.112Z,1.8
2019-02-06T03:28:24.000Z,1.7
2019-02-06T03:29:36.499Z,1.6
2019-02-06T03:30:48.000Z,1.9
2019-02-06T03:32:00.894Z,1.6
2019-02-06T03:33:13.089Z,1.9
2019-02-06T03:34:25.028Z,2.6
2019-02-06T03:35:37.000Z,1.8
2019-02-06T03:36:49.674Z,2
2019-02-06T03:38:01.000Z,1.5
2019-02-06T03:39:14.062Z,1.7
2019-02-06T03:40:26.244Z,1.6
2019-02-06T03:41:38.442Z,2
2019-02-06T03:42:50.000Z,1.7
2019-02-06T03:44:02.825Z,1.7
2019-02-06T03:45:15.021Z,1.7
2019-02-06T03:46:27.207Z,1.6
2019-02-06T03:47:39.409Z,1.9
2019-02-06T03:48:51.602Z,1.8
2019-02-06T03:50:03.000Z,1.7
2019-02-06T03:51:15.986Z,1.7
2019-02-06T03:52:28.181Z,2
2019-02-06T03:53:40.378Z,1.7
2019-02-06T03:54:52.568Z,1.5
2019-02-06T03:56:04.757Z,1.9
2019-02-06T03:57:16.956Z,1.4
2019-02-06T03:58:29.000Z,1.7
2019-02-06T03:59:41.354Z,1.8
2019-02-06T04:00:53.543Z,1.8
2019-02-06T04:02:05.734Z,1.8
2019-02-06T04:03:17.925Z,1.8
2019-02-06T04:04:30.000Z,1.7
2019-02-06T04:05:42.003Z,1.5
2019-02-06T04:06:54.000Z,1.5
2019-02-06T04:08:06.702Z,1.6
2019-02-06T04:09:18.900Z,1.9
2019-02-06T04:10:31.000Z,1.5
2019-02-06T04:11:43.000Z,1.7
2019-02-06T04:12:55.475Z,1.8
2019-02-06T04:14:07.674Z,1.6
2019-02-06T04:15:19.859Z,2.1
2019-02-06T04:16:32.059Z,1.6
2019-02-06T04:17:44.255Z,1.6
2019-02-06T04:18:56.445Z,1.7
2019-02-06T04:20:08.063Z,1.8
2019-02-06T04:21:20.831Z,1.7
2019-02-06T04:22:33.027Z,1.6
2019-02-06T04:23:45.216Z,1.9
2019-02-06T04:24:57.041Z,1.7
2019-02-06T04:26:09.000Z,1.7
2019-02-06T04:27:21.794Z,1.6
2019-02-06T04:28:33.995Z,1.7
2019-02-06T04:29:46.188Z,1.8
2019-02-06T04:30:58.384Z,1.6
2019-02-06T04:32:10.577Z,1.4
2019-02-06T04:33:22.000Z,1.6
2019-02-06T04:34:34.096Z,1.5
2019-02-06T04:35:47.163Z,1.7
2019-02-06T04:36:59.349Z,1.5
2019-02-06T04:38:11.566Z,1.6
2019-02-06T04:39:23.740Z,1.6
2019-02-06T04:40:35.000Z,1.7
2019-02-06T04:41:48.126Z,1.7
2019-02-06T04:43:00.320Z,1.6
2019-02-06T04:44:12.514Z,1.6
2019-02-06T04:45:24.713Z,2
2019-02-06T04:46:36.904Z,1.5
2019-02-06T04:47:49.094Z,1.7
2019-02-06T04:49:01.287Z,2.3
2019-02-06T04:50:13.000Z,2
2019-02-06T04:51:25.671Z,1.7
2019-02-06T04:52:37.865Z,1.7
2019-02-06T04:53:50.063Z,1.5
2019-02-06T04:55:02.000Z,1.5
2019-02-06T04:56:14.494Z,1.6
2019-02-06T04:57:26.000Z,1.6
2019-02-06T04:58:38.083Z,1.5
2019-02-06T04:59:51.035Z,1.7
2019-02-06T05:01:03.227Z,1.7
2019-02-06T05:02:15.000Z,1.5
2019-02-06T05:03:27.611Z,1.8
2019-02-06T05:04:39.806Z,1.9
2019-02-06T05:05:51.998Z,1.7
2019-02-06T05:07:04.197Z,1.5
2019-02-06T05:08:16.393Z,2
2019-02-06T05:09:28.586Z,1.6
2019-02-06T05:10:40.775Z,1.5
2019-02-06T05:11:52.000Z,1.6
2019-02-06T05:14:17.358Z,1.4
2019-02-06T05:15:29.547Z,1.5
2019-02-06T05:16:41.747Z,1.5
2019-02-06T05:17:53.937Z,1.5
2019-02-06T05:19:06.134Z,1.5
2019-02-06T05:20:18.330Z,1.6
2019-02-06T05:21:30.524Z,1.8
2019-02-06T05:22:42.000Z,1.6
2019-02-06T05:23:54.904Z,1.7
2019-02-06T05:25:07.106Z,1.4
2019-02-06T05:26:19.293Z,1.8
2019-02-06T05:27:31.503Z,1.5
2019-02-06T05:28:43.685Z,1.4
2019-02-06T05:29:55.881Z,1.4
2019-02-06T05:31:08.000Z,1.7
2019-02-06T05:32:20.266Z,1.6
2019-02-06T05:33:32.464Z,1.5
2019-02-06T05:34:44.654Z,1.7
2019-02-06T05:35:57.688Z,1.5
2019-02-06T05:37:09.043Z,1.3
2019-02-06T05:38:21.000Z,1.4
2019-02-06T05:39:33.429Z,1.6
2019-02-06T05:40:45.062Z,1.4
2019-02-06T05:41:57.817Z,1.4
2019-02-06T05:43:10.005Z,1.5
2019-02-06T05:44:22.204Z,1.5
2019-02-06T05:45:34.000Z,1.4
2019-02-06T05:46:46.059Z,1.4
2019-02-06T05:47:58.790Z,1.5
2019-02-06T05:49:10.977Z,1.4
2019-02-06T05:50:23.174Z,1.4
2019-02-06T05:51:35.365Z,1.4
2019-02-06T05:52:47.000Z,1.5
2019-02-06T05:53:59.756Z,1.5
2019-02-06T05:55:11.948Z,1.7
2019-02-06T05:56:24.014Z,1.3
2019-02-06T05:57:36.333Z,1.6
2019-02-06T05:58:48.053Z,1.6
2019-02-06T06:00:00.000Z,1.6
2019-02-06T06:01:12.920Z,1.6
2019-02-06T06:02:25.114Z,1.6
2019-02-06T06:03:37.310Z,1.5
2019-02-06T06:04:49.500Z,1.5
2019-02-06T06:06:01.702Z,1.7
2019-02-06T06:07:13.000Z,1.6
2019-02-06T06:08:26.081Z,1.6
2019-02-06T06:09:38.275Z,1.5
2019-02-06T06:10:50.488Z,1.9
2019-02-06T06:12:02.670Z,1.7
2019-02-06T06:13:14.863Z,1.6
2019-02-06T06:14:27.060Z,1.5
2019-02-06T06:15:39.247Z,1.6
2019-02-06T06:16:51.000Z,1.6
2019-02-06T06:18:03.634Z,1.6
2019-02-06T06:19:15.834Z,1.5
2019-02-06T06:20:28.023Z,1.6
2019-02-06T06:21:40.215Z,1.4
2019-02-06T06:22:52.000Z,1.5
2019-02-06T06:24:04.605Z,1.5
2019-02-06T06:25:16.798Z,1.6
2019-02-06T06:26:28.994Z,1.6
2019-02-06T06:27:41.186Z,1.5
2019-02-06T06:28:53.000Z,1.4
2019-02-06T06:30:05.591Z,1.4
2019-02-06T06:31:18.116Z,1.6
2019-02-06T06:32:29.960Z,1.5
2019-02-06T06:33:42.160Z,1.5
2019-02-06T06:34:54.349Z,1.4
2019-02-06T06:36:06.000Z,1.5
2019-02-06T06:37:18.736Z,1.5
2019-02-06T06:39:43.164Z,1.6
2019-02-06T06:40:55.319Z,1.6
2019-02-06T06:42:07.516Z,1.4
2019-02-06T06:43:19.071Z,1.5
2019-02-06T06:44:31.907Z,1.4
2019-02-06T06:45:44.000Z,1.6
2019-02-06T06:46:56.000Z,1.4
2019-02-06T06:48:08.489Z,1.5
2019-02-06T06:49:20.068Z,1.6
2019-02-06T06:50:32.870Z,1.4
2019-02-06T06:51:45.064Z,1.7
2019-02-06T06:52:57.269Z,1.4
2019-02-06T06:54:09.045Z,1.5
2019-02-06T06:55:21.064Z,1.4
2019-02-06T06:56:33.845Z,1.4
2019-02-06T06:57:46.000Z,1.6
2019-02-06T06:58:58.000Z,1.5
2019-02-06T07:00:10.429Z,1.6
2019-02-06T07:02:34.818Z,1.6
2019-02-06T07:03:47.014Z,1.5
2019-02-06T07:04:59.199Z,1.6
2019-02-06T07:06:11.039Z,1.6
2019-02-06T07:07:23.590Z,1.7
2019-02-06T07:08:35.785Z,1.5
2019-02-06T07:09:47.983Z,1.6
2019-02-06T07:11:00.000Z,1.4
2019-02-06T07:12:12.366Z,1.4
2019-02-06T07:13:24.056Z,1.5
2019-02-06T07:14:36.000Z,1.5
2019-02-06T07:15:48.949Z,1.6
2019-02-06T07:17:01.145Z,1.6
2019-02-06T07:18:13.345Z,1.4
2019-02-06T07:19:25.000Z,1.6
2019-02-06T07:20:37.000Z,1.5
2019-02-06T07:21:49.918Z,1.5
2019-02-06T07:23:02.142Z,1.4
2019-02-06T07:24:14.306Z,1.6
2019-02-06T07:25:26.501Z,1.6
2019-02-06T07:26:38.700Z,1.4
2019-02-06T07:27:50.895Z,1.6
2019-02-06T07:29:03.089Z,1.6
2019-02-06T07:30:15.277Z,1.6
2019-02-06T07:31:27.479Z,1.4
2019-02-06T07:32:39.000Z,1.6
2019-02-06T07:33:51.000Z,1.7
2019-02-06T07:35:04.055Z,1.5
2019-02-06T07:36:16.252Z,1.8
2019-02-06T07:37:28.443Z,1.7
2019-02-06T07:38:40.006Z,1.7
2019-02-06T07:39:52.828Z,1.7
2019-02-06T07:41:05.000Z,1.5
2019-02-06T07:42:17.214Z,1.5
2019-02-06T07:44:41.000Z,1.7
2019-02-06T07:45:53.008Z,1.5
2019-02-06T07:47:05.000Z,1.4
2019-02-06T07:48:18.200Z,1.6
2019-02-06T07:49:30.386Z,1.7
2019-02-06T07:50:42.584Z,1.6
2019-02-06T07:51:54.771Z,1.5
2019-02-06T07:53:06.968Z,1.8
2019-02-06T07:54:19.166Z,1.5
2019-02-06T07:55:31.351Z,1.5
2019-02-06T07:56:43.000Z,1.6
2019-02-06T07:57:55.074Z,1.7
2019-02-06T07:59:07.939Z,1.5
2019-02-06T08:00:20.138Z,1.5
2019-02-06T08:01:32.319Z,1.5
2019-02-06T08:02:44.000Z,1.6
2019-02-06T08:03:56.713Z,1.6
2019-02-06T08:05:08.911Z,1.8
2019-02-06T08:06:21.117Z,1.7
2019-02-06T08:07:33.292Z,1.7
2019-02-06T08:08:45.488Z,2.4
2019-02-06T08:09:57.000Z,1.6
2019-02-06T08:11:09.000Z,1.5
2019-02-06T08:12:22.000Z,1.6
2019-02-06T08:14:46.462Z,1.7
2019-02-06T08:15:58.657Z,1.7
2019-02-06T08:17:10.000Z,1.5
2019-02-06T08:18:23.040Z,1.8
2019-02-06T08:19:35.245Z,1.6
2019-02-06T08:20:47.430Z,1.7
2019-02-06T08:21:59.622Z,1.6
2019-02-06T08:23:11.816Z,2.5
2019-02-06T08:24:23.000Z,2.4
2019-02-06T08:25:36.206Z,1.8
2019-02-06T08:26:48.400Z,1.8
2019-02-06T08:28:00.058Z,1.7
2019-02-06T08:29:12.793Z,2.3
2019-02-06T08:30:24.975Z,2.4
2019-02-06T08:31:37.000Z,2.7
2019-02-06T08:32:49.374Z,1.7
2019-02-06T08:34:01.569Z,1.9
2019-02-06T08:35:13.075Z,2.8
2019-02-06T08:36:25.947Z,1.8
2019-02-06T08:38:50.000Z,1.9
2019-02-06T08:40:02.528Z,2
2019-02-06T08:41:14.724Z,2.6
2019-02-06T08:42:26.918Z,2.9
2019-02-06T08:43:39.117Z,3.2
2019-02-06T08:44:51.308Z,2.9
2019-02-06T08:46:03.503Z,1.9
2019-02-06T08:47:15.000Z,1.9
2019-02-06T08:48:27.914Z,2.7
2019-02-06T08:49:40.085Z,3.1
2019-02-06T08:50:52.287Z,2.2
2019-02-06T08:52:04.479Z,2.1
2019-02-06T08:53:16.000Z,1.9
2019-02-06T08:54:28.861Z,3.5
2019-02-06T08:55:41.000Z,3
2019-02-06T08:56:53.250Z,2.8
2019-02-06T08:58:05.445Z,3
2019-02-06T08:59:17.000Z,4.1
2019-02-06T09:00:29.000Z,3.8
2019-02-06T09:01:42.022Z,4
2019-02-06T09:02:54.214Z,2.1
2019-02-06T09:04:06.410Z,3.2
2019-02-06T09:05:18.606Z,2.2
2019-02-06T09:06:30.000Z,3.2
2019-02-06T09:07:42.000Z,3.2
2019-02-06T09:08:55.192Z,3.3
2019-02-06T09:10:07.379Z,3.3
2019-02-06T09:11:19.569Z,5.3
2019-02-06T09:12:31.769Z,3.6
2019-02-06T09:13:43.982Z,3.4
2019-02-06T09:14:56.000Z,3
2019-02-06T09:16:08.347Z,4
2019-02-06T09:17:20.547Z,4.8
2019-02-06T09:18:32.735Z,2.6
2019-02-06T09:19:44.092Z,5.2
2019-02-06T09:20:57.154Z,4.6
2019-02-06T09:22:09.000Z,3.3
2019-02-06T09:23:21.000Z,4.8
2019-02-06T09:24:33.728Z,4.2
2019-02-06T09:25:45.899Z,4
2019-02-06T09:26:58.098Z,5
2019-02-06T09:28:10.293Z,4
2019-02-06T09:29:22.486Z,4.3
2019-02-06T09:30:34.681Z,3.4
2019-02-06T09:31:46.873Z,6
2019-02-06T09:32:59.073Z,4.5
2019-02-06T09:34:11.257Z,5.7
2019-02-06T09:35:23.455Z,5.2
2019-02-06T09:36:35.645Z,3.1
2019-02-06T09:37:47.840Z,7.9
2019-02-06T09:39:00.003Z,4.5
2019-02-06T09:40:12.231Z,5.1
2019-02-06T09:41:24.427Z,5.1
2019-02-06T09:42:36.625Z,5.6
2019-02-06T09:43:48.000Z,4.8
2019-02-06T09:45:01.004Z,4.2
2019-02-06T09:46:13.202Z,4.7
2019-02-06T09:47:25.402Z,7.1
2019-02-06T09:48:37.597Z,3.8
2019-02-06T09:51:01.000Z,9
2019-02-06T09:52:14.166Z,6.6
2019-02-06T09:53:26.369Z,6.1
2019-02-06T09:55:50.748Z,7.6
2019-02-06T09:57:02.945Z,7.5
2019-02-06T09:58:15.148Z,4.9
2019-02-06T09:59:27.000Z,4.9
2019-02-06T10:00:39.000Z,8.6
2019-02-06T10:01:51.725Z,6.7
2019-02-06T10:03:03.916Z,8.2
2019-02-06T10:04:16.112Z,7.6
2019-02-06T10:05:28.000Z,8.8
2019-02-06T10:06:40.049Z,7.6
2019-02-06T10:07:52.693Z,6.9
2019-02-06T10:09:04.882Z,6.5
2019-02-06T10:10:17.008Z,6.8
2019-02-06T10:11:29.278Z,6.6
2019-02-06T10:12:41.000Z,9.2
2019-02-06T10:13:53.665Z,7.3
2019-02-06T10:15:05.857Z,8.1
2019-02-06T10:16:18.050Z,8.6
2019-02-06T10:17:30.286Z,9.3
2019-02-06T10:18:42.443Z,7.6
2019-02-06T10:19:54.632Z,8.4
2019-02-06T10:21:06.823Z,13.2
2019-02-06T10:22:19.026Z,7
2019-02-06T10:23:31.000Z,9.2
2019-02-06T10:24:43.407Z,8.9
2019-02-06T10:25:55.060Z,9.4
2019-02-06T10:27:07.794Z,7.8
2019-02-06T10:28:19.987Z,10.8
2019-02-06T10:29:32.001Z,9
2019-02-06T10:30:44.381Z,11.2
2019-02-06T10:31:56.578Z,9.2
2019-02-06T10:33:08.766Z,11.4
2019-02-06T10:34:20.963Z,8.5
2019-02-06T10:35:33.155Z,8.7
2019-02-06T10:36:45.346Z,12.3
2019-02-06T10:37:57.545Z,9.8
2019-02-06T10:39:09.740Z,8.8
2019-02-06T10:40:21.937Z,13.3
2019-02-06T10:41:34.121Z,9.7
2019-02-06T10:42:46.316Z,11.1
2019-02-06T10:43:58.515Z,12
2019-02-06T10:45:10.711Z,14.2
2019-02-06T10:46:22.898Z,13.1
2019-02-06T10:47:35.090Z,13.6
2019-02-06T10:48:47.000Z,13.3
2019-02-06T10:51:11.067Z,16.1
2019-02-06T10:52:23.867Z,15.7
2019-02-06T10:53:36.065Z,13.3
2019-02-06T10:54:48.262Z,12.7
2019-02-06T10:56:00.456Z,12.7
2019-02-06T10:57:12.643Z,14.1
2019-02-06T10:58:24.853Z,11.9
2019-02-06T10:59:37.039Z,14.6
2019-02-06T11:00:49.244Z,11.4
2019-02-06T11:02:01.421Z,14.8
2019-02-06T11:03:13.616Z,14.6
2019-02-06T11:04:25.814Z,16.5
2019-02-06T11:05:38.010Z,11.2
2019-02-06T11:06:50.193Z,14
2019-02-06T11:08:02.390Z,15.1
2019-02-06T11:09:14.587Z,14
2019-02-06T11:10:26.810Z,14.2
2019-02-06T11:11:38.969Z,14.3
2019-02-06T11:12:51.017Z,19.2
2019-02-06T11:14:03.036Z,13.1
2019-02-06T11:15:15.557Z,18.8
2019-02-06T11:16:27.757Z,17.3
2019-02-06T11:17:39.947Z,20.2
2019-02-06T11:18:52.146Z,15.9
2019-02-06T11:20:04.337Z,14.5
2019-02-06T11:21:16.521Z,17.7
2019-02-06T11:22:28.717Z,15.6
2019-02-06T11:23:40.000Z,16.7
2019-02-06T11:24:53.111Z,18.2
2019-02-06T11:26:05.298Z,18.4
2019-02-06T11:27:17.492Z,16
2019-02-06T11:28:29.688Z,14.7
2019-02-06T11:29:41.883Z,20.6
2019-02-06T11:30:54.073Z,19.2
2019-02-06T11:32:06.270Z,18
2019-02-06T11:33:18.467Z,17.1
2019-02-06T11:34:30.065Z,21.8
2019-02-06T11:35:42.000Z,14.8
2019-02-06T11:36:55.054Z,15.4
2019-02-06T11:38:07.241Z,20.4
2019-02-06T11:39:19.000Z,16.9
2019-02-06T11:40:31.627Z,21.3
2019-02-06T11:41:43.818Z,17.3
2019-02-06T11:42:56.020Z,20.9
2019-02-06T11:44:08.209Z,18.3
2019-02-06T11:45:20.410Z,22.1
2019-02-06T11:46:32.636Z,18.3
2019-02-06T11:47:44.795Z,21.1
2019-02-06T11:48:56.986Z,19.7
2019-02-06T11:50:09.181Z,19.3
2019-02-06T11:52:33.000Z,22.5
2019-02-06T11:53:45.764Z,19.2
2019-02-06T11:54:57.952Z,19.1
2019-02-06T11:56:10.149Z,18.2
2019-02-06T11:57:22.034Z,22.2
2019-02-06T11:58:34.536Z,21
2019-02-06T11:59:46.737Z,21.6
2019-02-06T12:00:58.928Z,22.4
2019-02-06T12:02:11.117Z,19.5
2019-02-06T12:03:23.319Z,22.2
2019-02-06T12:04:35.505Z,22.1
2019-02-06T12:05:47.705Z,23.9
2019-02-06T12:06:59.890Z,23.9
2019-02-06T12:08:12.086Z,22.5
2019-02-06T12:09:24.287Z,26.6
2019-02-06T12:10:36.475Z,23.9
2019-02-06T12:11:48.000Z,21.3
2019-02-06T12:13:00.867Z,23.5
2019-02-06T12:15:25.000Z,20.7
2019-02-06T12:16:37.449Z,20.5
2019-02-06T12:17:49.640Z,24.6
2019-02-06T12:19:01.834Z,23.2
2019-02-06T12:20:14.029Z,23.3
2019-02-06T12:21:26.000Z,21.4
2019-02-06T12:22:38.041Z,22.4
2019-02-06T12:23:50.000Z,23.3
2019-02-06T12:25:02.802Z,23.9
2019-02-06T12:27:27.194Z,23.5
2019-02-06T12:28:39.382Z,24.3
2019-02-06T12:29:51.580Z,19.6
2019-02-06T12:31:03.773Z,23.9
2019-02-06T12:32:15.967Z,25.4
2019-02-06T12:33:28.175Z,30.8
2019-02-06T12:34:40.036Z,22.7
2019-02-06T12:35:52.000Z,27.8
2019-02-06T12:37:04.736Z,26.9
2019-02-06T12:39:29.130Z,23.3
2019-02-06T12:40:41.332Z,26.8
2019-02-06T12:41:53.521Z,21.1
2019-02-06T12:43:05.718Z,22.4
2019-02-06T12:44:17.907Z,20.1
2019-02-06T12:45:30.102Z,25
2019-02-06T12:46:42.000Z,27.9
2019-02-06T12:47:54.000Z,22.3
2019-02-06T12:49:06.006Z,28.2
2019-02-06T12:50:18.875Z,25.2
2019-02-06T12:51:31.097Z,25.2
2019-02-06T12:52:43.267Z,20
2019-02-06T12:53:55.458Z,27.5
2019-02-06T12:55:07.064Z,22.7
2019-02-06T12:56:19.849Z,23.4
2019-02-06T12:57:32.000Z,21
2019-02-06T12:58:44.235Z,23.7
2019-02-06T12:59:56.000Z,24.8
2019-02-06T13:01:08.620Z,22.6
2019-02-06T13:02:20.081Z,20
2019-02-06T13:03:33.013Z,26.3
2019-02-06T13:04:45.020Z,28
2019-02-06T13:05:57.000Z,24.3
2019-02-06T13:07:09.597Z,22.8
2019-02-06T13:08:21.792Z,20.9
2019-02-06T13:09:33.098Z,24.2
2019-02-06T13:10:46.175Z,31.3
2019-02-06T13:11:58.369Z,25.7
2019-02-06T13:13:10.565Z,25.4
2019-02-06T13:15:34.959Z,26.5
2019-02-06T13:16:47.166Z,27.1
2019-02-06T13:17:59.344Z,28.5
2019-02-06T13:19:11.546Z,27.3
2019-02-06T13:20:23.742Z,30
2019-02-06T13:21:35.000Z,28.5
2019-02-06T13:22:48.122Z,29.6
2019-02-06T13:24:00.000Z,34.8
2019-02-06T13:25:12.512Z,27.4
2019-02-06T13:26:24.712Z,30.6
2019-02-06T13:27:36.924Z,29.8
2019-02-06T13:28:49.106Z,32.4
2019-02-06T13:30:01.301Z,28.2
2019-02-06T13:31:13.488Z,27.6
2019-02-06T13:32:25.683Z,29.3
2019-02-06T13:33:37.878Z,27.5
2019-02-06T13:34:50.080Z,30.9
2019-02-06T13:36:02.277Z,31.3
2019-02-06T13:37:14.464Z,31.1
2019-02-06T13:39:38.085Z,30.3
2019-02-06T13:40:51.049Z,28.2
2019-02-06T13:42:03.284Z,25.3
2019-02-06T13:43:15.440Z,30.2
2019-02-06T13:44:27.063Z,31.5
2019-02-06T13:45:39.836Z,31
2019-02-06T13:46:52.002Z,37.1
2019-02-06T13:48:04.226Z,32.8
2019-02-06T13:49:16.429Z,28.8
2019-02-06T13:50:28.623Z,27.6
2019-02-06T13:51:40.815Z,31.2
2019-02-06T13:52:53.008Z,30.6
2019-02-06T13:54:05.002Z,30.8
2019-02-06T13:55:17.409Z,30.5
2019-02-06T13:56:29.000Z,27.4
2019-02-06T13:57:41.827Z,29.2
2019-02-06T13:58:53.000Z,36.1
2019-02-06T14:00:06.000Z,28.2
2019-02-06T14:01:18.382Z,30.6
2019-02-06T14:02:30.573Z,34.8
2019-02-06T14:03:42.773Z,35.3
2019-02-06T14:04:54.959Z,28
2019-02-06T14:06:07.015Z,26.9
2019-02-06T14:07:19.354Z,29.7
2019-02-06T14:08:31.553Z,33.2
2019-02-06T14:09:43.751Z,33.7
2019-02-06T14:10:55.094Z,29.7
2019-02-06T14:12:08.000Z,29.5
2019-02-06T14:13:20.326Z,32.3
2019-02-06T14:14:32.556Z,34.6
2019-02-06T14:15:44.720Z,39
2019-02-06T14:16:56.918Z,30.4
2019-02-06T14:18:09.113Z,35.8
2019-02-06T14:19:21.307Z,28.1
2019-02-06T14:20:33.000Z,37.5
2019-02-06T14:21:45.700Z,30.8
2019-02-06T14:22:57.897Z,32.5
2019-02-06T14:24:10.000Z,36.7
2019-02-06T14:25:22.286Z,30.5
2019-02-06T14:26:34.487Z,36.9
2019-02-06T14:27:46.676Z,32.3
2019-02-06T14:28:58.874Z,34.1
2019-02-06T14:30:11.062Z,39.2
2019-02-06T14:31:23.260Z,30.1
2019-02-06T14:32:35.000Z,31.6
2019-02-06T14:33:47.658Z,36.5
2019-02-06T14:34:59.000Z,31.9
2019-02-06T14:36:12.000Z,37.2
2019-02-06T14:37:24.244Z,39.8
2019-02-06T14:38:36.431Z,35.2
2019-02-06T14:39:48.628Z,37.8
2019-02-06T14:41:00.821Z,32.3
2019-02-06T14:42:13.017Z,32.6
2019-02-06T14:43:25.216Z,30.4
2019-02-06T14:44:37.520Z,35.4
2019-02-06T14:45:49.601Z,36.1
2019-02-06T14:47:01.000Z,31.8
2019-02-06T14:48:13.999Z,37.9
2019-02-06T14:49:26.197Z,36.4
2019-02-06T14:50:38.386Z,33.7
2019-02-06T14:51:50.581Z,30
2019-02-06T14:53:02.779Z,32.9
2019-02-06T14:54:14.980Z,34
2019-02-06T14:55:27.170Z,34
2019-02-06T14:56:39.036Z,39.3
2019-02-06T14:57:51.559Z,39.7
2019-02-06T14:59:03.075Z,33.9
2019-02-06T15:00:15.951Z,39.4
2019-02-06T15:01:28.149Z,34.8
2019-02-06T15:02:40.340Z,35.8
2019-02-06T15:03:52.538Z,33.1
2019-02-06T15:05:04.769Z,40.8
2019-02-06T15:06:16.923Z,31.8
2019-02-06T15:07:29.130Z,30.9
2019-02-06T15:08:41.318Z,32.2
2019-02-06T15:09:53.521Z,36.4
2019-02-06T15:11:05.723Z,33.2
2019-02-06T15:12:17.906Z,36.4
2019-02-06T15:13:30.104Z,29.2
2019-02-06T15:14:42.300Z,32.4
2019-02-06T15:15:54.000Z,37.5
2019-02-06T15:17:06.686Z,37.4
2019-02-06T15:18:18.884Z,30.6
2019-02-06T15:19:31.079Z,30.5
2019-02-06T15:20:43.275Z,36.9
2019-02-06T15:21:55.469Z,35.9
2019-02-06T15:23:07.666Z,31.4
2019-02-06T15:24:20.344Z,36.3
2019-02-06T15:25:32.060Z,29.6
2019-02-06T15:26:44.252Z,31.6
2019-02-06T15:27:56.447Z,32.6
2019-02-06T15:29:08.645Z,34.9
2019-02-06T15:30:20.000Z,32.2
2019-02-06T15:31:33.034Z,34.4
2019-02-06T15:32:45.238Z,39.5
2019-02-06T15:33:57.429Z,33.6
2019-02-06T15:35:09.626Z,34.1
2019-02-06T15:36:21.817Z,32.5
2019-02-06T15:37:34.012Z,36.7
2019-02-06T15:38:46.213Z,29.7
2019-02-06T15:39:58.000Z,32.1
2019-02-06T15:41:10.600Z,33.2
2019-02-06T15:42:22.801Z,32.8
2019-02-06T15:43:34.987Z,31.7
2019-02-06T15:44:47.191Z,28.9
2019-02-06T15:45:59.379Z,28.4
2019-02-06T15:48:23.776Z,29.4
2019-02-06T15:49:35.967Z,34.2
2019-02-06T15:50:48.167Z,31.9
2019-02-06T15:52:00.363Z,33.6
2019-02-06T15:53:12.560Z,34.7
2019-02-06T15:54:24.756Z,29.9
2019-02-06T15:55:36.942Z,29.7
2019-02-06T15:56:49.140Z,32.3
2019-02-06T15:58:01.347Z,25.9
2019-02-06T15:59:13.000Z,31.2
2019-02-06T16:00:25.737Z,28.3
2019-02-06T16:01:37.921Z,27.9
2019-02-06T16:02:50.012Z,28.4
2019-02-06T16:04:02.316Z,31
2019-02-06T16:05:14.518Z,26.5
2019-02-06T16:06:26.000Z,30.9
2019-02-06T16:07:38.906Z,31.1
2019-02-06T16:08:51.000Z,32.1
2019-02-06T16:10:03.293Z,30.3
2019-02-06T16:11:15.497Z,32.9
2019-02-06T16:12:27.685Z,29.8
2019-02-06T16:13:39.880Z,29
2019-02-06T16:14:52.080Z,27.3
2019-02-06T16:16:04.271Z,30.1
2019-02-06T16:17:16.469Z,30.1
2019-02-06T16:18:28.671Z,35
2019-02-06T16:19:40.864Z,31.3
2019-02-06T16:20:53.067Z,32.4
2019-02-06T16:22:05.251Z,27.6
2019-02-06T16:23:17.444Z,27.8
2019-02-06T16:24:29.637Z,27.8
2019-02-06T16:25:41.841Z,25.8
2019-02-06T16:26:54.037Z,35.8
2019-02-06T16:28:06.230Z,31.5
2019-02-06T16:29:18.423Z,28.7
2019-02-06T16:30:30.620Z,31.9
2019-02-06T16:31:42.081Z,28.8
2019-02-06T16:32:55.003Z,24.6
2019-02-06T16:34:07.198Z,28.1
2019-02-06T16:35:19.402Z,27.9
2019-02-06T16:36:31.000Z,29.3
2019-02-06T16:37:43.795Z,26.1
2019-02-06T16:38:55.990Z,25.6
2019-02-06T16:40:08.183Z,27.2
2019-02-06T16:41:20.370Z,31.4
2019-02-06T16:42:32.000Z,26
2019-02-06T16:43:44.770Z,28.4
2019-02-06T16:44:56.000Z,27.9
2019-02-06T16:46:09.160Z,24.5
2019-02-06T16:47:21.035Z,28.3